Weather observations for the past three days for
Muscatine
Imperial (Metric)
Date Time (cdt) Wind (mph) Vis. (mi.) Weather Sky Cond. Temperature (ºF) Relative Humidity Wind Chill (°F) Heat Index (°F) Pressure Precipitation (in)
Air Dwpt 6 hour altimeter (in) sea level (mb) 1 hr 3 hr 6 hr
Max. Min.
03 14:15 W 16 G 26 10.00 Fair CLR 71.6 41 33% 29.76 0.0
03 13:55 W 21 G 29 10.00 Fair and Breezy CLR 71.6 41 33% 29.78 0.0
03 13:35 SW 18 G 29 9.00 Fair CLR 69.8 42.8 38% 29.78 0.0
03 13:15 SW 17 G 30 10.00 Fair CLR 69.8 41 35% 29.78 0.0
03 12:55 SW 20 G 31 10.00 Fair CLR 68 41 38% 29.79 0.0
03 12:35 SW 18 G 26 10.00 Fair CLR 68 41 38% 29.79 0.0
03 12:15 W 20 G 30 10.00 Fair CLR 68 41 38% 29.8 0.0
03 11:55 SW 17 G 31 10.00 Fair CLR 66.2 41 40% 29.8 0.0
03 11:35 SW 21 G 30 10.00 Fair and Breezy CLR 64.4 41 43% 29.82 0.0
03 11:15 SW 17 G 28 10.00 Fair CLR 62.6 39.2 42% 29.83 0.0
03 10:55 SW 18 G 31 10.00 Fair CLR 60.8 37.4 42% 29.84 0.0
03 10:35 SW 18 G 25 10.00 Fair CLR 60.8 37.4 42% 29.85 0.0
03 10:15 S 13 10.00 Partly Cloudy SCT080 57.2 37.4 48% 29.86 0.0
03 09:55 S 14 10.00 Overcast OVC080 55.4 35.6 47% 29.87 0.0
03 09:35 S 10 10.00 Overcast OVC085 55.4 37.4 51% 29.88 0.0
03 09:15 S 9 10.00 Mostly Cloudy FEW070 BKN090 53.6 35.6 51% 29.89 0.0
03 08:55 S 10 10.00 Mostly Cloudy FEW075 BKN095 53.6 35.6 51% 29.89 0.0
03 08:35 SE 8 G 14 10.00 Mostly Cloudy SCT070 SCT080 BKN090 53.6 35.6 51% 29.91 0.0
03 08:15 SW 5 10.00 Overcast SCT070 OVC090 53.6 35.6 51% 29.94 0.0
03 07:55 S 8 10.00 Overcast OVC090 53.6 35.6 51% 29.93 0.0
03 07:35 S 12 10.00 Mostly Cloudy FEW070 BKN090 BKN110 53.6 35.6 51% 29.92 0.0
03 07:15 S 12 10.00 Partly Cloudy FEW055 SCT110 51.8 35.6 54% 29.93 0.0
03 06:55 S 8 10.00 Overcast FEW040 BKN055 OVC070 51.8 37.4 58% 29.93 0.0
03 06:35 SW 10 9.00 Overcast FEW037 BKN060 OVC070 51.8 35.6 54% 29.95 0.0
03 06:15 SW 6 G 13 10.00 Overcast BKN065 BKN075 OVC095 51.8 33.8 50% 29.94 0.0
03 05:35 Calm 10.00 Overcast SCT080 OVC090 50 33.8 54% 29.95 0.0
03 05:15 SE 5 10.00 Overcast SCT080 OVC095 48.2 33.8 58% 47 29.96 0.0
03 04:55 SE 5 10.00 Overcast OVC100 50 33.8 54% 49 29.95 0.0
03 04:35 SE 6 10.00 Mostly Cloudy BKN095 48.2 33.8 58% 46 29.95 0.0
03 04:15 SE 6 10.00 A Few Clouds FEW100 FEW120 48.2 33.8 58% 46 29.96 0.0
03 03:55 SE 7 10.00 Mostly Cloudy FEW070 BKN095 BKN110 48.2 33.8 58% 46 29.97 0.0
03 03:35 SE 5 10.00 Overcast SCT070 OVC100 50 33.8 54% 49 29.97 0.0
03 03:15 SE 5 10.00 Overcast BKN100 OVC120 48.2 32 54% 47 29.97 0.0
03 02:55 SE 5 10.00 Overcast OVC100 48.2 33.8 58% 47 29.97 0.0
03 02:35 SE 5 10.00 Partly Cloudy SCT110 46.4 33.8 62% 45 29.97 0.0
03 02:15 SE 3 10.00 Partly Cloudy SCT120 46.4 33.8 62% 29.97 0.0
03 01:55 Calm 10.00 Mostly Cloudy BKN120 48.2 33.8 58% 29.98 0.0
03 01:35 Calm 10.00 Partly Cloudy SCT120 48.2 32 54% 29.98 0.0
03 01:15 SE 5 10.00 A Few Clouds FEW120 48.2 32 54% 47 29.99 0.0
03 00:55 SE 5 10.00 Fair CLR 46.4 32 57% 45 30 0.0
03 00:35 S 6 10.00 Fair CLR 48.2 32 54% 46 30 0.0
03 00:15 S 7 10.00 Fair CLR 46.4 32 57% 43 30 0.0
02 23:55 S 9 10.00 Fair CLR 46.4 32 57% 42 30.01 0.0
02 23:35 S 8 10.00 Fair CLR 46.4 32 57% 43 30.01 0.0
02 23:15 S 8 10.00 Fair CLR 46.4 32 57% 43 30.02 0.0
02 22:55 S 7 10.00 Fair CLR 46.4 32 57% 43 30.02 0.0
02 22:35 S 7 10.00 Fair CLR 46.4 32 57% 43 30.03 0.0
02 22:15 S 7 10.00 Fair CLR 44.6 32 61% 41 30.03 0.0
02 21:55 SW 7 10.00 Fair CLR 46.4 32 57% 43 30.03 0.0
02 21:35 SW 7 10.00 Fair CLR 46.4 32 57% 43 30.04 0.0
02 21:15 S 7 10.00 Fair CLR 46.4 32 57% 43 30.03 0.0
02 20:55 S 6 10.00 Fair CLR 48.2 32 54% 46 30.03 0.0
02 20:35 S 6 10.00 Fair CLR 50 28.4 43% 48 30.03 0.0
02 20:15 SW 5 10.00 Fair CLR 53.6 28.4 38% 30.03 0.0
02 19:55 SW 5 10.00 Fair CLR 55.4 26.6 33% 30.03 0.0
02 19:35 SW 6 10.00 Fair CLR 57.2 26.6 31% 30.03 0.0
02 19:15 SW 9 10.00 Fair CLR 57.2 26.6 31% 30.03 0.0
02 18:55 W 8 10.00 Fair CLR 59 24.8 27% 30.04 0.0
02 18:35 W 10 10.00 Fair CLR 59 24.8 27% 30.04 0.0
02 18:15 W 9 10.00 Fair CLR 60.8 24.8 25% 30.05 0.0
02 17:55 Vrbl 5 G 16 10.00 Fair CLR 60.8 24.8 25% 30.05 0.0
02 17:35 SW 12 10.00 Fair CLR 60.8 24.8 25% 30.05 0.0
02 17:15 W 12 10.00 Fair CLR 60.8 24.8 25% 30.06 0.0
02 16:35 W 8 G 16 10.00 Fair CLR 60.8 23 23% 30.07 0.0
02 16:15 W 7 G 13 10.00 Fair CLR 60.8 24.8 25% 30.07 0.0
02 15:55 W 8 10.00 Fair CLR 60.8 24.8 25% 30.08 0.0
02 15:35 Vrbl 7 10.00 Fair CLR 60.8 23 23% 30.09 0.0
02 15:15 SW 12 10.00 A Few Clouds FEW080 60.8 26.6 27% 30.09 0.0
02 14:55 Calm 10.00 Fair CLR 59 23 25% 30.1 0.0
02 14:35 Vrbl 6 10.00 A Few Clouds FEW080 59 24.8 27% 30.1 0.0
02 14:15 Vrbl 6 G 13 10.00 Partly Cloudy SCT080 59 24.8 27% 30.11 0.0
02 13:55 N 10 10.00 Fair CLR 59 24.8 27% 30.11 0.0
02 13:35 NW 9 10.00 A Few Clouds FEW080 59 23 25% 30.12 0.0
02 13:15 Vrbl 6 10.00 Fair CLR 59 26.6 29% 30.13 0.0
02 12:55 Vrbl 6 10.00 A Few Clouds FEW080 57.2 24.8 29% 30.13 0.0
02 12:35 Calm 10.00 Partly Cloudy SCT080 57.2 23 27% 30.14 0.0
02 12:15 Calm 10.00 Mostly Cloudy BKN080 57.2 24.8 29% 30.14 0.0
02 11:55 Vrbl 6 G 13 10.00 Partly Cloudy SCT080 55.4 24.8 31% 30.15 0.0
02 11:35 NW 7 10.00 Partly Cloudy SCT070 55.4 23 28% 30.15 0.0
02 11:15 Calm 10.00 Mostly Cloudy BKN070 BKN080 53.6 24.8 33% 30.15 0.0
02 10:55 NE 6 10.00 Partly Cloudy FEW065 SCT080 55.4 24.8 31% 30.16 0.0
02 10:35 N 5 10.00 Fair CLR 53.6 28.4 38% 30.16 0.0
02 10:15 W 3 10.00 Fair CLR 53.6 32 44% 30.16 0.0
02 09:55 Vrbl 3 10.00 Fair CLR 51.8 35.6 54% 30.16 0.0
02 09:35 Calm 10.00 Fair CLR 50 35.6 58% 30.16 0.0
02 09:15 Calm 10.00 Fair CLR 50 37.4 62% 30.16 0.0
02 08:55 SE 5 10.00 Fair CLR 48.2 35.6 62% 47 30.16 0.0
02 08:35 S 3 10.00 Fair CLR 46.4 35.6 66% 30.16 0.0
02 08:15 S 5 10.00 Fair CLR 44.6 37.4 76% 43 30.16 0.0
02 07:55 SE 5 10.00 Fair CLR 42.8 37.4 81% 41 30.15 0.0
02 07:35 Calm 10.00 Fair CLR 41 37.4 87% 30.15 0.0
02 07:15 Calm 9.00 Fair CLR 39.2 37.4 93% 30.14 0.0
02 06:55 Calm 9.00 A Few Clouds FEW080 37.4 35.6 93% 30.14 0.0
02 06:35 Calm 10.00 Mostly Cloudy BKN080 35.6 33.8 93% 30.14 0.0
02 06:15 Calm 10.00 Partly Cloudy SCT080 35.6 33.8 93% 30.13 0.0
02 05:55 Calm 10.00 Fair CLR 35.6 33.8 93% 30.13 0.0
02 05:35 Calm 10.00 Fair CLR 35.6 32 87% 30.13 0.0
02 05:15 Calm 10.00 Fair CLR 35.6 33.8 93% 30.13 0.0
02 04:55 Calm 10.00 Fair CLR 37.4 33.8 87% 30.13 0.0
02 04:35 Calm 10.00 Fair CLR 35.6 32 87% 30.12 0.0
02 04:15 Calm 10.00 Fair CLR 35.6 32 87% 30.12 0.0
02 03:55 Calm 10.00 A Few Clouds FEW085 37.4 33.8 87% 30.12 0.0
02 03:35 Calm 10.00 A Few Clouds FEW090 39.2 33.8 81% 30.11 0.0
02 03:15 Calm 10.00 Fair CLR 37.4 33.8 87% 30.11 0.0
02 02:55 N 3 10.00 A Few Clouds FEW070 FEW080 39.2 33.8 81% 30.1 0.0
02 02:15 NE 6 10.00 Mostly Cloudy SCT065 BKN080 39.2 33.8 81% 36 30.1 0.0
02 01:55 N 7 10.00 Partly Cloudy SCT070 SCT080 41 35.6 81% 37 30.1 0.0
02 01:35 N 3 10.00 Partly Cloudy FEW065 SCT075 SCT085 41 37.4 87% 30.1 0.0
02 01:15 N 5 10.00 Overcast BKN070 OVC085 42.8 37.4 81% 41 30.1 0.0
02 00:55 Calm 10.00 Overcast SCT065 OVC080 42.8 37.4 81% 30.1 0.0
02 00:35 Calm 10.00 Overcast SCT070 OVC080 44.6 37.4 76% 30.1 0.0
02 00:15 Calm 10.00 Overcast BKN070 OVC080 42.8 39.2 87% 30.1 0.0
01 23:55 Calm 10.00 Overcast BKN075 OVC085 44.6 39.2 81% 30.09 0.0
01 23:35 Calm 10.00 Overcast BKN075 OVC085 44.6 39.2 81% 30.09 0.0
01 23:15 Calm 10.00 Overcast OVC075 42.8 37.4 81% 30.09 0.0
01 22:55 Calm 10.00 Overcast OVC075 42.8 37.4 81% 30.09 0.0
01 22:35 Calm 10.00 Mostly Cloudy BKN075 BKN085 42.8 37.4 81% 30.09 0.0
01 22:15 Calm 10.00 Mostly Cloudy BKN085 42.8 37.4 81% 30.08 0.0
01 21:55 Calm 10.00 Mostly Cloudy BKN085 44.6 35.6 71% 30.08 0.0
01 21:35 Calm 10.00 A Few Clouds FEW080 46.4 35.6 66% 30.07 0.0
01 21:15 Calm 10.00 Fair CLR 44.6 33.8 66% 30.07 0.0
01 20:55 Calm 10.00 Fair CLR 46.4 33.8 62% 30.06 0.0
01 20:35 N 5 10.00 Fair CLR 50 33.8 54% 49 30.05 0.0
01 20:15 N 5 10.00 Partly Cloudy SCT100 50 33.8 54% 49 30.04 0.0
01 19:55 NE 5 10.00 Overcast OVC100 51.8 35.6 54% 30.04 0.0
01 19:35 NE 6 10.00 Overcast OVC100 53.6 33.8 47% 30.04 0.0
01 19:15 NE 7 10.00 Mostly Cloudy FEW060 FEW080 BKN100 53.6 33.8 47% 30.03 0.0
01 18:55 NE 9 10.00 Overcast OVC100 53.6 33.8 47% 30.03 0.0
01 18:35 N 13 G 18 10.00 Mostly Cloudy SCT055 BKN090 BKN110 53.6 33.8 47% 30.03 0.0
01 18:15 N 17 10.00 Mostly Cloudy SCT055 BKN090 55.4 33.8 44% 30.03 0.0
01 17:55 Calm 10.00 Overcast OVC090 55.4 33.8 44% 30.03 0.0
01 17:35 NE 5 10.00 Mostly Cloudy BKN090 55.4 33.8 44% 30.03 0.0
01 17:15 N 6 10.00 A Few Clouds FEW090 55.4 33.8 44% 30.03 0.0
01 16:55 NE 5 10.00 Partly Cloudy FEW080 SCT090 53.6 33.8 47% 30.03 0.0
01 16:35 NW 6 10.00 Partly Cloudy SCT070 SCT075 53.6 33.8 47% 30.03 0.0
01 16:15 N 9 9.00 Mostly Cloudy FEW045 FEW050 BKN070 53.6 35.6 51% 30.03 0.0
01 15:55 N 9 10.00 Mostly Cloudy FEW060 BKN070 BKN085 55.4 33.8 44% 30.04 0.0
01 15:35 N 8 10.00 Partly Cloudy FEW055 SCT080 57.2 35.6 44% 30.04 0.0
01 15:15 NE 9 G 18 10.00 Partly Cloudy FEW060 FEW070 SCT075 57.2 35.6 44% 30.04 0.0
01 14:55 N 8 10.00 Partly Cloudy FEW060 SCT070 SCT080 55.4 33.8 44% 30.04 0.0
01 14:35 Vrbl 6 10.00 A Few Clouds FEW065 55.4 32 41% 30.05 0.0
01 14:15 NW 7 10.00 A Few Clouds FEW060 55.4 32 41% 30.05 0.0
01 13:55 NW 5 10.00 Mostly Cloudy BKN055 BKN070 BKN090 55.4 32 41% 30.05 0.0
01 13:35 SW 7 10.00 Mostly Cloudy BKN055 BKN090 BKN110 55.4 33.8 44% 30.05 0.0
01 13:15 Calm 10.00 A Few Clouds FEW100 53.6 32 44% 30.04 0.0
01 12:55 W 9 10.00 Partly Cloudy FEW070 SCT100 55.4 33.8 44% 30.05 0.0
01 12:35 SW 9 10.00 A Few Clouds FEW060 FEW070 51.8 32 47% 30.06 0.0
01 12:15 NW 6 10.00 Mostly Cloudy BKN060 BKN070 51.8 30.2 44% 30.06 0.0
01 11:55 SW 6 10.00 Mostly Cloudy BKN070 BKN080 BKN090 51.8 30.2 44% 30.05 0.0
01 11:35 Calm 10.00 Mostly Cloudy SCT060 BKN070 BKN090 53.6 30.2 41% 30.06 0.0
01 11:15 Vrbl 3 10.00 Overcast SCT050 BKN065 OVC095 51.8 30.2 44% 30.06 0.0
01 10:55 Vrbl 5 10.00 Partly Cloudy FEW050 SCT060 SCT080 51.8 30.2 44% 30.06 0.0
01 10:35 Calm 10.00 Mostly Cloudy FEW043 SCT060 BKN080 51.8 30.2 44% 30.06 0.0
01 10:15 Calm 10.00 Mostly Cloudy FEW050 SCT060 BKN085 50 28.4 43% 30.06 0.0
01 09:55 Calm 10.00 Overcast OVC085 50 30.2 47% 30.06 0.0
01 09:15 Vrbl 3 10.00 Mostly Cloudy BKN085 48.2 32 54% 30.06 0.0
01 08:55 Calm 10.00 Mostly Cloudy SCT070 BKN090 46.4 32 57% 30.06 0.0
01 08:35 Calm 10.00 Mostly Cloudy BKN070 BKN085 BKN100 44.6 32 61% 30.06 0.0
01 08:15 Calm 10.00 Mostly Cloudy FEW045 SCT070 BKN080 42.8 33.8 71% 30.07 0.0
01 07:55 NW 5 10.00 Mostly Cloudy FEW033 SCT045 BKN070 42.8 32 66% 41 30.07 0.0
01 07:35 Calm 10.00 Mostly Cloudy SCT060 SCT075 BKN090 42.8 33.8 71% 30.07 0.0
01 07:15 Calm 10.00 Mostly Cloudy BKN060 BKN070 41 33.8 76% 30.07 0.0
01 06:55 Calm 10.00 Mostly Cloudy BKN070 39.2 33.8 81% 30.06 0.0
01 06:35 Calm 10.00 Mostly Cloudy BKN070 37.4 32 81% 30.05 0.0
01 06:15 NW 3 10.00 Overcast FEW055 BKN070 OVC090 37.4 30.2 75% 30.05 0.0
01 05:55 Calm 10.00 Overcast FEW060 OVC070 37.4 30.2 75% 30.05 0.0
01 05:35 Calm 10.00 Overcast BKN065 OVC085 37.4 30.2 75% 30.05 0.0
01 05:15 NW 3 10.00 Mostly Cloudy BKN085 37.4 30.2 75% 30.04 0.0
01 04:55 Calm 10.00 Mostly Cloudy SCT070 BKN080 37.4 30.2 75% 30.05 0.0
01 04:35 Calm 10.00 Overcast BKN070 OVC080 37.4 30.2 75% 30.05 0.0
01 04:15 Calm 10.00 Mostly Cloudy FEW060 BKN070 37.4 30.2 75% 30.04 0.0
01 03:55 NW 5 10.00 Fair CLR 37.4 30.2 75% 34 30.04 0.0
01 03:35 NW 5 10.00 Fair CLR 37.4 30.2 75% 34 30.04 0.0
01 03:15 NW 7 10.00 Fair CLR 39.2 30.2 70% 35 30.04 0.0
01 02:55 NW 6 10.00 Fair CLR 39.2 30.2 70% 36 30.03 0.0
01 02:35 NW 6 10.00 Fair CLR 39.2 30.2 70% 36 30.04 0.0
01 02:15 NW 7 10.00 Fair CLR 39.2 30.2 70% 35 30.04 0.0
01 01:55 NW 7 10.00 Fair CLR 41 30.2 66% 37 30.04 0.0
01 01:35 NW 7 10.00 Fair CLR 42.8 30.2 61% 39 30.04 0.0
01 01:15 NW 7 10.00 Fair CLR 42.8 28.4 57% 39 30.04 0.0
01 00:55 NW 8 10.00 Fair CLR 44.6 30.2 57% 41 30.03 0.0
01 00:35 NW 9 10.00 Fair CLR 44.6 30.2 57% 40 30.03 0.0
30 23:55 NW 8 10.00 Fair CLR 46.4 30.2 53% 43 30.02 0.0
30 23:35 NW 9 10.00 Fair CLR 46.4 30.2 53% 42 30.02 0.0
30 23:15 NW 10 G 17 10.00 Fair CLR 48.2 28.4 46% 44 30.01 0.0
30 22:55 NW 12 10.00 Partly Cloudy FEW075 SCT085 50 28.4 43% 46 30.01 0.0
30 22:35 NW 12 G 18 10.00 Overcast FEW070 BKN075 OVC085 50 28.4 43% 46 30.01 0.0
30 22:15 NW 13 10.00 Overcast OVC080 51.8 30.2 44% 30.01 0.0
30 21:55 NW 10 10.00 Overcast OVC080 51.8 30.2 44% 30.01 0.0
30 21:35 NW 8 10.00 Mostly Cloudy BKN080 50 30.2 47% 47 30 0.0
30 20:55 W 7 10.00 Overcast OVC085 50 33.8 54% 48 29.99 0.0
30 20:35 NW 6 10.00 Overcast OVC085 51.8 32 47% 29.98 0.0
30 20:15 NW 8 10.00 Mostly Cloudy BKN085 51.8 35.6 54% 29.98 0.0
30 19:55 NW 6 10.00 Partly Cloudy FEW055 SCT075 SCT095 51.8 35.6 54% 29.97 0.0
30 19:35 NW 6 10.00 Overcast SCT060 BKN070 OVC100 53.6 35.6 51% 29.97 0.0
30 19:15 NW 8 10.00 Overcast BKN055 OVC065 55.4 35.6 47% 29.96 0.0
30 18:55 NW 13 10.00 Mostly Cloudy BKN050 BKN100 55.4 35.6 47% 29.97 0.0
30 18:35 N 13 10.00 Mostly Cloudy BKN048 BKN095 55.4 37.4 51% 29.96 0.0
30 18:15 N 12 10.00 Overcast FEW040 BKN045 OVC095 55.4 39.2 55% 29.96 0.0
30 17:55 NW 10 10.00 Mostly Cloudy SCT041 BKN090 55.4 39.2 55% 29.96 0.0
30 17:35 NW 12 10.00 A Few Clouds FEW042 57.2 39.2 51% 29.96 0.0
30 16:55 N 14 G 20 10.00 Overcast BKN044 OVC050 55.4 42.8 63% 29.96 0.0
30 16:35 NW 15 10.00 Overcast SCT031 BKN040 OVC050 57.2 42.8 59% 29.96 0.0
30 16:15 N 14 G 20 10.00 Overcast BKN032 BKN039 OVC045 55.4 42.8 63% 29.97 0.0
30 15:55 NW 8 10.00 Overcast BKN033 OVC045 57.2 44.6 63% 29.96 0.0
30 15:35 NW 8 10.00 Overcast OVC034 57.2 42.8 59% 29.97 0.0
30 15:15 SW 9 G 15 10.00 Overcast BKN035 OVC044 55.4 42.8 63% 29.97 0.0
30 14:55 SW 10 G 17 10.00 Mostly Cloudy SCT036 SCT044 BKN055 57.2 42.8 59% 29.98 0.0
Date Time (cdt) Wind (mph) Vis. (mi.) Weather Sky Cond. Air Dwpt Max. Min. Relative Humidity Wind Chill (°F) Heat Index (°F) altimeter (in) sea level (mb) 1 hr 3 hr 6 hr
6 hour
Temperature (ºF) Pressure Precipitation (in)